sensor_id;sensor_type;location;lat;lon;timestamp;P1;durP1;ratioP1;P2;durP2;ratioP2
35494;SDS011;21608;49.300;6.846;2022-08-05T00:01:34;2.55;;;2.35;;
35494;SDS011;21608;49.300;6.846;2022-08-05T00:04:49;3.50;;;2.42;;
35494;SDS011;21608;49.300;6.846;2022-08-05T00:07:56;4.20;;;2.45;;
35494;SDS011;21608;49.300;6.846;2022-08-05T00:11:02;3.97;;;2.92;;
35494;SDS011;21608;49.300;6.846;2022-08-05T00:14:29;2.90;;;2.67;;
35494;SDS011;21608;49.300;6.846;2022-08-05T00:17:31;3.35;;;3.00;;
35494;SDS011;21608;49.300;6.846;2022-08-05T00:20:34;8.05;;;2.67;;
35494;SDS011;21608;49.300;6.846;2022-08-05T00:23:36;2.92;;;2.40;;
35494;SDS011;21608;49.300;6.846;2022-08-05T00:26:53;4.80;;;2.35;;
35494;SDS011;21608;49.300;6.846;2022-08-05T00:29:55;3.25;;;2.30;;
35494;SDS011;21608;49.300;6.846;2022-08-05T00:33:00;4.00;;;2.40;;
35494;SDS011;21608;49.300;6.846;2022-08-05T00:36:02;2.42;;;2.22;;
35494;SDS011;21608;49.300;6.846;2022-08-05T00:39:16;2.70;;;2.50;;
35494;SDS011;21608;49.300;6.846;2022-08-05T00:42:28;4.75;;;2.45;;
35494;SDS011;21608;49.300;6.846;2022-08-05T00:45:32;3.72;;;2.30;;
35494;SDS011;21608;49.300;6.846;2022-08-05T00:48:39;3.40;;;2.60;;
35494;SDS011;21608;49.300;6.846;2022-08-05T00:51:51;3.15;;;2.45;;
35494;SDS011;21608;49.300;6.846;2022-08-05T00:54:53;2.78;;;2.58;;
35494;SDS011;21608;49.300;6.846;2022-08-05T00:57:56;4.60;;;2.30;;
35494;SDS011;21608;49.300;6.846;2022-08-05T01:00:59;4.38;;;2.65;;
35494;SDS011;21608;49.300;6.846;2022-08-05T01:04:02;3.42;;;2.40;;
35494;SDS011;21608;49.300;6.846;2022-08-05T01:07:14;5.18;;;2.22;;
35494;SDS011;21608;49.300;6.846;2022-08-05T01:10:20;6.05;;;2.38;;
35494;SDS011;21608;49.300;6.846;2022-08-05T01:17:09;5.30;;;2.40;;
35494;SDS011;21608;49.300;6.846;2022-08-05T01:30:52;3.20;;;2.25;;
35494;SDS011;21608;49.300;6.846;2022-08-05T01:37:38;3.08;;;1.98;;
35494;SDS011;21608;49.300;6.846;2022-08-05T01:40:57;3.13;;;2.28;;
35494;SDS011;21608;49.300;6.846;2022-08-05T01:44:02;4.38;;;2.33;;
35494;SDS011;21608;49.300;6.846;2022-08-05T01:47:10;3.05;;;2.28;;
35494;SDS011;21608;49.300;6.846;2022-08-05T01:50:27;4.95;;;2.22;;
35494;SDS011;21608;49.300;6.846;2022-08-05T01:53:31;3.30;;;2.30;;
35494;SDS011;21608;49.300;6.846;2022-08-05T01:56:55;2.33;;;2.15;;
35494;SDS011;21608;49.300;6.846;2022-08-05T02:00:19;2.33;;;2.08;;
35494;SDS011;21608;49.300;6.846;2022-08-05T02:03:41;5.80;;;2.35;;
35494;SDS011;21608;49.300;6.846;2022-08-05T02:06:46;2.63;;;2.50;;
35494;SDS011;21608;49.300;6.846;2022-08-05T02:09:49;4.57;;;2.15;;
35494;SDS011;21608;49.300;6.846;2022-08-05T02:16:03;3.28;;;2.60;;
35494;SDS011;21608;49.300;6.846;2022-08-05T02:19:27;2.58;;;2.30;;
35494;SDS011;21608;49.300;6.846;2022-08-05T02:22:37;3.15;;;2.47;;
35494;SDS011;21608;49.300;6.846;2022-08-05T02:25:43;2.97;;;2.47;;
35494;SDS011;21608;49.300;6.846;2022-08-05T02:28:50;2.35;;;2.05;;
35494;SDS011;21608;49.300;6.846;2022-08-05T02:31:57;2.60;;;2.40;;
35494;SDS011;21608;49.300;6.846;2022-08-05T02:35:06;4.55;;;2.85;;
35494;SDS011;21608;49.300;6.846;2022-08-05T02:38:14;3.03;;;2.40;;
35494;SDS011;21608;49.300;6.846;2022-08-05T02:41:20;2.67;;;2.33;;
35494;SDS011;21608;49.300;6.846;2022-08-05T02:44:37;6.45;;;2.67;;
35494;SDS011;21608;49.300;6.846;2022-08-05T02:47:42;4.13;;;2.40;;
35494;SDS011;21608;49.300;6.846;2022-08-05T02:51:06;3.00;;;2.53;;
35494;SDS011;21608;49.300;6.846;2022-08-05T02:54:09;2.88;;;2.40;;
35494;SDS011;21608;49.300;6.846;2022-08-05T02:57:32;5.60;;;3.03;;
35494;SDS011;21608;49.300;6.846;2022-08-05T03:00:57;3.40;;;2.42;;
35494;SDS011;21608;49.300;6.846;2022-08-05T03:04:02;8.50;;;3.13;;
35494;SDS011;21608;49.300;6.846;2022-08-05T03:07:14;3.60;;;2.95;;
35494;SDS011;21608;49.300;6.846;2022-08-05T03:10:40;4.95;;;2.83;;
35494;SDS011;21608;49.300;6.846;2022-08-05T03:14:03;3.08;;;2.20;;
35494;SDS011;21608;49.300;6.846;2022-08-05T03:17:08;3.13;;;2.58;;
35494;SDS011;21608;49.300;6.846;2022-08-05T03:20:10;4.72;;;2.50;;
35494;SDS011;21608;49.300;6.846;2022-08-05T03:23:13;3.65;;;3.10;;
35494;SDS011;21608;49.300;6.846;2022-08-05T03:26:16;7.28;;;3.35;;
35494;SDS011;21608;49.300;6.846;2022-08-05T03:29:32;3.88;;;2.92;;
35494;SDS011;21608;49.300;6.846;2022-08-05T03:32:55;4.25;;;3.00;;
35494;SDS011;21608;49.300;6.846;2022-08-05T03:35:57;10.27;;;3.10;;
35494;SDS011;21608;49.300;6.846;2022-08-05T03:39:04;4.13;;;2.63;;
35494;SDS011;21608;49.300;6.846;2022-08-05T03:42:08;5.63;;;2.97;;
35494;SDS011;21608;49.300;6.846;2022-08-05T03:45:09;3.97;;;3.60;;
35494;SDS011;21608;49.300;6.846;2022-08-05T03:48:23;4.07;;;2.83;;
35494;SDS011;21608;49.300;6.846;2022-08-05T03:51:34;4.57;;;3.30;;
35494;SDS011;21608;49.300;6.846;2022-08-05T03:55:01;3.40;;;3.05;;
35494;SDS011;21608;49.300;6.846;2022-08-05T03:58:31;5.32;;;3.17;;
35494;SDS011;21608;49.300;6.846;2022-08-05T04:01:38;3.92;;;2.95;;
35494;SDS011;21608;49.300;6.846;2022-08-05T04:04:48;3.42;;;3.10;;
35494;SDS011;21608;49.300;6.846;2022-08-05T04:07:54;5.07;;;3.30;;
35494;SDS011;21608;49.300;6.846;2022-08-05T04:10:59;3.60;;;3.30;;
35494;SDS011;21608;49.300;6.846;2022-08-05T04:14:03;5.53;;;3.55;;
35494;SDS011;21608;49.300;6.846;2022-08-05T04:17:06;5.35;;;3.80;;
35494;SDS011;21608;49.300;6.846;2022-08-05T04:20:21;8.02;;;3.88;;
35494;SDS011;21608;49.300;6.846;2022-08-05T04:23:25;4.03;;;3.70;;
35494;SDS011;21608;49.300;6.846;2022-08-05T04:26:48;6.40;;;3.63;;
35494;SDS011;21608;49.300;6.846;2022-08-05T04:29:50;7.53;;;4.32;;
35494;SDS011;21608;49.300;6.846;2022-08-05T04:32:55;6.22;;;3.88;;
35494;SDS011;21608;49.300;6.846;2022-08-05T04:35:57;4.85;;;3.65;;
35494;SDS011;21608;49.300;6.846;2022-08-05T04:39:19;7.30;;;3.95;;
35494;SDS011;21608;49.300;6.846;2022-08-05T04:42:22;6.65;;;4.40;;
35494;SDS011;21608;49.300;6.846;2022-08-05T04:45:25;5.90;;;4.45;;
35494;SDS011;21608;49.300;6.846;2022-08-05T04:48:47;4.75;;;4.28;;
35494;SDS011;21608;49.300;6.846;2022-08-05T04:51:51;6.53;;;4.03;;
35494;SDS011;21608;49.300;6.846;2022-08-05T04:55:00;6.00;;;4.20;;
35494;SDS011;21608;49.300;6.846;2022-08-05T04:58:16;6.70;;;4.22;;
35494;SDS011;21608;49.300;6.846;2022-08-05T05:01:22;7.35;;;4.47;;
35494;SDS011;21608;49.300;6.846;2022-08-05T05:04:44;5.45;;;3.70;;
35494;SDS011;21608;49.300;6.846;2022-08-05T05:07:50;5.82;;;4.22;;
35494;SDS011;21608;49.300;6.846;2022-08-05T05:10:56;3.95;;;3.47;;
35494;SDS011;21608;49.300;6.846;2022-08-05T05:13:59;4.55;;;4.10;;
35494;SDS011;21608;49.300;6.846;2022-08-05T05:17:02;4.25;;;3.70;;
35494;SDS011;21608;49.300;6.846;2022-08-05T05:20:08;6.55;;;4.13;;
35494;SDS011;21608;49.300;6.846;2022-08-05T05:23:10;6.70;;;4.10;;
35494;SDS011;21608;49.300;6.846;2022-08-05T05:26:20;5.35;;;3.80;;
35494;SDS011;21608;49.300;6.846;2022-08-05T05:29:29;6.25;;;4.47;;
35494;SDS011;21608;49.300;6.846;2022-08-05T05:32:50;4.90;;;3.90;;
35494;SDS011;21608;49.300;6.846;2022-08-05T05:35:53;5.32;;;4.25;;
35494;SDS011;21608;49.300;6.846;2022-08-05T05:38:58;4.65;;;4.25;;
35494;SDS011;21608;49.300;6.846;2022-08-05T05:42:00;7.53;;;3.90;;
35494;SDS011;21608;49.300;6.846;2022-08-05T05:45:02;5.53;;;4.10;;
35494;SDS011;21608;49.300;6.846;2022-08-05T05:48:04;4.22;;;3.63;;
35494;SDS011;21608;49.300;6.846;2022-08-05T05:51:09;9.15;;;4.53;;
35494;SDS011;21608;49.300;6.846;2022-08-05T05:54:16;5.82;;;4.45;;
35494;SDS011;21608;49.300;6.846;2022-08-05T05:57:19;11.18;;;4.70;;
35494;SDS011;21608;49.300;6.846;2022-08-05T06:00:21;6.95;;;4.50;;
35494;SDS011;21608;49.300;6.846;2022-08-05T06:03:31;5.38;;;4.47;;
35494;SDS011;21608;49.300;6.846;2022-08-05T06:06:53;9.82;;;4.15;;
35494;SDS011;21608;49.300;6.846;2022-08-05T06:10:02;6.60;;;4.15;;
35494;SDS011;21608;49.300;6.846;2022-08-05T06:13:10;5.85;;;4.20;;
35494;SDS011;21608;49.300;6.846;2022-08-05T06:16:12;6.82;;;4.13;;
35494;SDS011;21608;49.300;6.846;2022-08-05T06:19:32;6.00;;;4.40;;
35494;SDS011;21608;49.300;6.846;2022-08-05T06:22:36;6.30;;;4.18;;
35494;SDS011;21608;49.300;6.846;2022-08-05T06:25:40;4.63;;;4.18;;
35494;SDS011;21608;49.300;6.846;2022-08-05T06:29:02;4.40;;;3.70;;
35494;SDS011;21608;49.300;6.846;2022-08-05T06:32:25;9.48;;;4.32;;
35494;SDS011;21608;49.300;6.846;2022-08-05T06:35:29;6.03;;;3.80;;
35494;SDS011;21608;49.300;6.846;2022-08-05T06:38:51;5.75;;;3.63;;
35494;SDS011;21608;49.300;6.846;2022-08-05T06:41:58;4.13;;;3.75;;
35494;SDS011;21608;49.300;6.846;2022-08-05T06:45:05;5.35;;;3.97;;
35494;SDS011;21608;49.300;6.846;2022-08-05T06:48:09;7.45;;;3.72;;
35494;SDS011;21608;49.300;6.846;2022-08-05T06:51:31;7.13;;;3.88;;
35494;SDS011;21608;49.300;6.846;2022-08-05T06:54:33;5.40;;;4.40;;
35494;SDS011;21608;49.300;6.846;2022-08-05T06:57:36;5.78;;;3.75;;
35494;SDS011;21608;49.300;6.846;2022-08-05T07:00:58;5.80;;;3.75;;
35494;SDS011;21608;49.300;6.846;2022-08-05T07:04:01;7.05;;;4.28;;
35494;SDS011;21608;49.300;6.846;2022-08-05T07:07:03;6.72;;;4.13;;
35494;SDS011;21608;49.300;6.846;2022-08-05T07:10:08;5.55;;;3.97;;
35494;SDS011;21608;49.300;6.846;2022-08-05T07:13:15;3.90;;;3.58;;
35494;SDS011;21608;49.300;6.846;2022-08-05T07:16:59;5.50;;;3.88;;
35494;SDS011;21608;49.300;6.846;2022-08-05T07:20:21;7.45;;;4.03;;
35494;SDS011;21608;49.300;6.846;2022-08-05T07:23:34;7.47;;;3.88;;
35494;SDS011;21608;49.300;6.846;2022-08-05T07:26:49;7.18;;;4.43;;
35494;SDS011;21608;49.300;6.846;2022-08-05T07:29:51;6.95;;;4.03;;
35494;SDS011;21608;49.300;6.846;2022-08-05T07:33:13;4.75;;;3.60;;
35494;SDS011;21608;49.300;6.846;2022-08-05T07:36:17;4.38;;;3.50;;
35494;SDS011;21608;49.300;6.846;2022-08-05T07:39:22;8.32;;;3.40;;
35494;SDS011;21608;49.300;6.846;2022-08-05T07:42:43;4.20;;;3.80;;
35494;SDS011;21608;49.300;6.846;2022-08-05T07:45:48;4.22;;;3.85;;
35494;SDS011;21608;49.300;6.846;2022-08-05T07:48:59;3.88;;;3.60;;
35494;SDS011;21608;49.300;6.846;2022-08-05T07:52:06;7.50;;;3.50;;
35494;SDS011;21608;49.300;6.846;2022-08-05T07:55:09;4.28;;;2.90;;
35494;SDS011;21608;49.300;6.846;2022-08-05T07:58:31;6.25;;;3.15;;
35494;SDS011;21608;49.300;6.846;2022-08-05T08:01:53;2.97;;;2.75;;
35494;SDS011;21608;49.300;6.846;2022-08-05T08:04:58;3.13;;;2.83;;
35494;SDS011;21608;49.300;6.846;2022-08-05T08:08:00;4.53;;;3.35;;
35494;SDS011;21608;49.300;6.846;2022-08-05T08:11:03;6.35;;;3.75;;
35494;SDS011;21608;49.300;6.846;2022-08-05T08:14:09;3.63;;;3.25;;
35494;SDS011;21608;49.300;6.846;2022-08-05T08:17:18;9.02;;;3.00;;
35494;SDS011;21608;49.300;6.846;2022-08-05T08:20:22;6.05;;;3.13;;
35494;SDS011;21608;49.300;6.846;2022-08-05T08:23:45;6.70;;;3.38;;
35494;SDS011;21608;49.300;6.846;2022-08-05T08:27:05;3.45;;;3.15;;
35494;SDS011;21608;49.300;6.846;2022-08-05T08:30:08;5.03;;;3.13;;
35494;SDS011;21608;49.300;6.846;2022-08-05T08:33:32;3.53;;;2.47;;
35494;SDS011;21608;49.300;6.846;2022-08-05T08:36:38;7.15;;;3.35;;
35494;SDS011;21608;49.300;6.846;2022-08-05T08:39:52;5.07;;;2.92;;
35494;SDS011;21608;49.300;6.846;2022-08-05T08:42:54;3.42;;;2.83;;
35494;SDS011;21608;49.300;6.846;2022-08-05T08:45:57;4.53;;;3.17;;
35494;SDS011;21608;49.300;6.846;2022-08-05T08:49:02;3.40;;;2.90;;
35494;SDS011;21608;49.300;6.846;2022-08-05T08:52:28;5.15;;;3.03;;
35494;SDS011;21608;49.300;6.846;2022-08-05T08:55:31;3.90;;;3.13;;
35494;SDS011;21608;49.300;6.846;2022-08-05T08:58:54;6.25;;;2.80;;
35494;SDS011;21608;49.300;6.846;2022-08-05T09:02:03;5.03;;;3.17;;
35494;SDS011;21608;49.300;6.846;2022-08-05T09:05:10;7.45;;;3.55;;
35494;SDS011;21608;49.300;6.846;2022-08-05T09:08:18;4.10;;;3.15;;
35494;SDS011;21608;49.300;6.846;2022-08-05T09:11:28;5.45;;;3.00;;
35494;SDS011;21608;49.300;6.846;2022-08-05T09:14:50;4.43;;;3.08;;
35494;SDS011;21608;49.300;6.846;2022-08-05T09:18:01;2.95;;;2.75;;
35494;SDS011;21608;49.300;6.846;2022-08-05T09:21:03;4.90;;;3.00;;
35494;SDS011;21608;49.300;6.846;2022-08-05T09:24:12;7.50;;;3.30;;
35494;SDS011;21608;49.300;6.846;2022-08-05T09:27:24;6.85;;;2.97;;
35494;SDS011;21608;49.300;6.846;2022-08-05T09:30:54;4.13;;;3.30;;
35494;SDS011;21608;49.300;6.846;2022-08-05T09:33:59;4.00;;;3.15;;
35494;SDS011;21608;49.300;6.846;2022-08-05T09:37:03;8.45;;;3.10;;
35494;SDS011;21608;49.300;6.846;2022-08-05T09:40:39;3.45;;;3.15;;
35494;SDS011;21608;49.300;6.846;2022-08-05T09:43:53;4.35;;;2.60;;
35494;SDS011;21608;49.300;6.846;2022-08-05T09:47:03;3.70;;;2.80;;
35494;SDS011;21608;49.300;6.846;2022-08-05T09:50:13;3.55;;;3.15;;
35494;SDS011;21608;49.300;6.846;2022-08-05T09:53:48;4.43;;;3.00;;
35494;SDS011;21608;49.300;6.846;2022-08-05T09:56:55;5.35;;;3.20;;
35494;SDS011;21608;49.300;6.846;2022-08-05T10:03:24;3.13;;;2.65;;
35494;SDS011;21608;49.300;6.846;2022-08-05T10:06:53;3.67;;;2.80;;
35494;SDS011;21608;49.300;6.846;2022-08-05T10:10:00;3.58;;;3.28;;
35494;SDS011;21608;49.300;6.846;2022-08-05T10:13:25;3.05;;;2.80;;
35494;SDS011;21608;49.300;6.846;2022-08-05T10:16:33;3.70;;;3.22;;
35494;SDS011;21608;49.300;6.846;2022-08-05T10:19:42;6.93;;;3.42;;
35494;SDS011;21608;49.300;6.846;2022-08-05T10:23:04;4.10;;;3.10;;
35494;SDS011;21608;49.300;6.846;2022-08-05T10:26:26;6.13;;;3.00;;
35494;SDS011;21608;49.300;6.846;2022-08-05T10:29:34;3.85;;;2.60;;
35494;SDS011;21608;49.300;6.846;2022-08-05T10:32:57;3.30;;;3.00;;
35494;SDS011;21608;49.300;6.846;2022-08-05T10:36:03;5.15;;;3.05;;
35494;SDS011;21608;49.300;6.846;2022-08-05T10:39:07;2.90;;;2.70;;
35494;SDS011;21608;49.300;6.846;2022-08-05T10:42:24;3.10;;;2.80;;
35494;SDS011;21608;49.300;6.846;2022-08-05T10:45:34;4.30;;;3.10;;
35494;SDS011;21608;49.300;6.846;2022-08-05T10:48:43;3.40;;;2.80;;
35494;SDS011;21608;49.300;6.846;2022-08-05T10:51:59;5.40;;;3.38;;
35494;SDS011;21608;49.300;6.846;2022-08-05T10:55:06;3.73;;;2.60;;
35494;SDS011;21608;49.300;6.846;2022-08-05T10:58:10;3.40;;;2.75;;
35494;SDS011;21608;49.300;6.846;2022-08-05T11:01:16;3.17;;;2.88;;
35494;SDS011;21608;49.300;6.846;2022-08-05T11:04:41;6.30;;;2.55;;
35494;SDS011;21608;49.300;6.846;2022-08-05T11:08:06;2.53;;;2.40;;
35494;SDS011;21608;49.300;6.846;2022-08-05T11:11:31;4.32;;;3.00;;
35494;SDS011;21608;49.300;6.846;2022-08-05T11:15:11;2.75;;;2.35;;
35494;SDS011;21608;49.300;6.846;2022-08-05T11:18:22;3.47;;;3.17;;
35494;SDS011;21608;49.300;6.846;2022-08-05T11:21:32;4.70;;;3.22;;
35494;SDS011;21608;49.300;6.846;2022-08-05T11:25:25;3.67;;;2.58;;
35494;SDS011;21608;49.300;6.846;2022-08-05T11:28:51;2.95;;;2.22;;
35494;SDS011;21608;49.300;6.846;2022-08-05T11:32:17;2.30;;;2.10;;
35494;SDS011;21608;49.300;6.846;2022-08-05T11:39:09;3.08;;;2.78;;
35494;SDS011;21608;49.300;6.846;2022-08-05T11:42:14;3.90;;;3.05;;
35494;SDS011;21608;49.300;6.846;2022-08-05T11:45:18;3.08;;;2.60;;
35494;SDS011;21608;49.300;6.846;2022-08-05T11:48:40;3.20;;;2.85;;
35494;SDS011;21608;49.300;6.846;2022-08-05T11:51:44;2.90;;;2.63;;
35494;SDS011;21608;49.300;6.846;2022-08-05T11:54:50;2.70;;;2.50;;
35494;SDS011;21608;49.300;6.846;2022-08-05T11:57:56;2.90;;;2.45;;
35494;SDS011;21608;49.300;6.846;2022-08-05T12:01:16;6.45;;;2.70;;
35494;SDS011;21608;49.300;6.846;2022-08-05T12:04:22;3.33;;;2.60;;
35494;SDS011;21608;49.300;6.846;2022-08-05T12:07:31;2.47;;;2.33;;
35494;SDS011;21608;49.300;6.846;2022-08-05T12:10:54;3.65;;;2.50;;
35494;SDS011;21608;49.300;6.846;2022-08-05T12:14:06;5.85;;;2.67;;
35494;SDS011;21608;49.300;6.846;2022-08-05T12:17:14;2.60;;;2.22;;
35494;SDS011;21608;49.300;6.846;2022-08-05T12:20:36;2.08;;;1.98;;
35494;SDS011;21608;49.300;6.846;2022-08-05T12:23:39;2.35;;;2.15;;
35494;SDS011;21608;49.300;6.846;2022-08-05T12:26:52;3.10;;;2.90;;
35494;SDS011;21608;49.300;6.846;2022-08-05T12:29:58;3.22;;;2.15;;
35494;SDS011;21608;49.300;6.846;2022-08-05T12:33:07;2.97;;;2.13;;
35494;SDS011;21608;49.300;6.846;2022-08-05T12:36:29;2.80;;;2.60;;
35494;SDS011;21608;49.300;6.846;2022-08-05T12:39:31;2.72;;;2.35;;
35494;SDS011;21608;49.300;6.846;2022-08-05T12:45:54;2.25;;;2.08;;
35494;SDS011;21608;49.300;6.846;2022-08-05T12:49:07;4.18;;;2.55;;
35494;SDS011;21608;49.300;6.846;2022-08-05T12:52:15;2.42;;;2.28;;
35494;SDS011;21608;49.300;6.846;2022-08-05T12:55:29;4.15;;;2.60;;
35494;SDS011;21608;49.300;6.846;2022-08-05T12:58:35;2.50;;;2.40;;
35494;SDS011;21608;49.300;6.846;2022-08-05T13:02:00;4.88;;;2.90;;
35494;SDS011;21608;49.300;6.846;2022-08-05T13:05:08;3.75;;;2.50;;
35494;SDS011;21608;49.300;6.846;2022-08-05T13:08:16;2.53;;;2.33;;
35494;SDS011;21608;49.300;6.846;2022-08-05T13:11:19;5.47;;;2.42;;
35494;SDS011;21608;49.300;6.846;2022-08-05T13:14:43;9.32;;;2.25;;
35494;SDS011;21608;49.300;6.846;2022-08-05T13:18:05;3.13;;;2.50;;
35494;SDS011;21608;49.300;6.846;2022-08-05T13:21:07;3.05;;;2.50;;
35494;SDS011;21608;49.300;6.846;2022-08-05T13:24:09;3.22;;;2.50;;
35494;SDS011;21608;49.300;6.846;2022-08-05T13:27:23;3.55;;;2.45;;
35494;SDS011;21608;49.300;6.846;2022-08-05T13:30:39;4.60;;;2.20;;
35494;SDS011;21608;49.300;6.846;2022-08-05T13:33:40;2.90;;;2.42;;
35494;SDS011;21608;49.300;6.846;2022-08-05T13:37:02;3.00;;;2.80;;
35494;SDS011;21608;49.300;6.846;2022-08-05T13:40:07;4.72;;;3.00;;
35494;SDS011;21608;49.300;6.846;2022-08-05T13:43:17;5.53;;;3.38;;
35494;SDS011;21608;49.300;6.846;2022-08-05T13:46:22;4.55;;;3.30;;
35494;SDS011;21608;49.300;6.846;2022-08-05T13:49:45;3.72;;;3.17;;
35494;SDS011;21608;49.300;6.846;2022-08-05T13:52:49;4.03;;;3.30;;
35494;SDS011;21608;49.300;6.846;2022-08-05T13:55:52;3.47;;;3.17;;
35494;SDS011;21608;49.300;6.846;2022-08-05T13:59:02;4.43;;;3.38;;
35494;SDS011;21608;49.300;6.846;2022-08-05T14:02:19;5.55;;;3.47;;
35494;SDS011;21608;49.300;6.846;2022-08-05T14:08:49;3.60;;;3.30;;
35494;SDS011;21608;49.300;6.846;2022-08-05T14:11:52;5.20;;;3.35;;
35494;SDS011;21608;49.300;6.846;2022-08-05T14:15:15;3.38;;;2.95;;
35494;SDS011;21608;49.300;6.846;2022-08-05T14:18:37;3.05;;;2.80;;
35494;SDS011;21608;49.300;6.846;2022-08-05T14:21:39;3.78;;;2.92;;
35494;SDS011;21608;49.300;6.846;2022-08-05T14:25:02;3.55;;;3.22;;
35494;SDS011;21608;49.300;6.846;2022-08-05T14:28:21;3.72;;;3.10;;
35494;SDS011;21608;49.300;6.846;2022-08-05T14:31:27;4.22;;;3.83;;
35494;SDS011;21608;49.300;6.846;2022-08-05T14:34:49;3.53;;;2.88;;
35494;SDS011;21608;49.300;6.846;2022-08-05T14:37:51;3.92;;;3.50;;
35494;SDS011;21608;49.300;6.846;2022-08-05T14:40:55;3.95;;;3.55;;
35494;SDS011;21608;49.300;6.846;2022-08-05T14:43:57;5.05;;;3.30;;
35494;SDS011;21608;49.300;6.846;2022-08-05T14:47:10;4.93;;;3.45;;
35494;SDS011;21608;49.300;6.846;2022-08-05T14:50:12;3.85;;;3.55;;
35494;SDS011;21608;49.300;6.846;2022-08-05T14:53:19;4.47;;;3.67;;
35494;SDS011;21608;49.300;6.846;2022-08-05T14:56:22;5.07;;;3.70;;
35494;SDS011;21608;49.300;6.846;2022-08-05T14:59:25;5.70;;;3.88;;
35494;SDS011;21608;49.300;6.846;2022-08-05T15:02:30;6.15;;;3.42;;
35494;SDS011;21608;49.300;6.846;2022-08-05T15:05:33;5.72;;;3.75;;
35494;SDS011;21608;49.300;6.846;2022-08-05T15:08:55;4.95;;;3.30;;
35494;SDS011;21608;49.300;6.846;2022-08-05T15:12:04;4.30;;;3.53;;
35494;SDS011;21608;49.300;6.846;2022-08-05T15:15:09;5.07;;;3.38;;
35494;SDS011;21608;49.300;6.846;2022-08-05T15:18:15;3.47;;;3.23;;
35494;SDS011;21608;49.300;6.846;2022-08-05T15:21:17;3.42;;;3.22;;
35494;SDS011;21608;49.300;6.846;2022-08-05T15:24:21;3.78;;;3.17;;
35494;SDS011;21608;49.300;6.846;2022-08-05T15:27:23;6.13;;;3.75;;
35494;SDS011;21608;49.300;6.846;2022-08-05T15:30:26;4.05;;;3.28;;
35494;SDS011;21608;49.300;6.846;2022-08-05T15:33:28;3.75;;;3.38;;
35494;SDS011;21608;49.300;6.846;2022-08-05T15:36:50;3.05;;;2.78;;
35494;SDS011;21608;49.300;6.846;2022-08-05T15:39:52;3.38;;;3.08;;
35494;SDS011;21608;49.300;6.846;2022-08-05T15:43:17;4.95;;;2.72;;
35494;SDS011;21608;49.300;6.846;2022-08-05T15:46:21;3.80;;;3.50;;
35494;SDS011;21608;49.300;6.846;2022-08-05T15:49:24;3.17;;;2.95;;
35494;SDS011;21608;49.300;6.846;2022-08-05T15:52:46;3.60;;;2.97;;
35494;SDS011;21608;49.300;6.846;2022-08-05T15:55:55;2.78;;;2.60;;
35494;SDS011;21608;49.300;6.846;2022-08-05T15:59:04;3.25;;;2.95;;
35494;SDS011;21608;49.300;6.846;2022-08-05T16:02:06;3.10;;;2.72;;
35494;SDS011;21608;49.300;6.846;2022-08-05T16:05:14;2.42;;;2.22;;
35494;SDS011;21608;49.300;6.846;2022-08-05T16:08:16;2.58;;;2.42;;
35494;SDS011;21608;49.300;6.846;2022-08-05T16:11:19;3.20;;;2.35;;
35494;SDS011;21608;49.300;6.846;2022-08-05T16:14:41;3.97;;;2.45;;
35494;SDS011;21608;49.300;6.846;2022-08-05T16:17:44;2.30;;;2.20;;
35494;SDS011;21608;49.300;6.846;2022-08-05T16:20:57;3.00;;;2.20;;
35494;SDS011;21608;49.300;6.846;2022-08-05T16:27:13;2.22;;;2.08;;
35494;SDS011;21608;49.300;6.846;2022-08-05T16:30:16;1.98;;;1.88;;
35494;SDS011;21608;49.300;6.846;2022-08-05T16:33:26;2.30;;;2.10;;
35494;SDS011;21608;49.300;6.846;2022-08-05T16:36:42;2.45;;;1.88;;
35494;SDS011;21608;49.300;6.846;2022-08-05T16:39:44;2.60;;;2.40;;
35494;SDS011;21608;49.300;6.846;2022-08-05T16:43:07;3.25;;;2.00;;
35494;SDS011;21608;49.300;6.846;2022-08-05T16:46:09;2.33;;;2.13;;
35494;SDS011;21608;49.300;6.846;2022-08-05T16:49:25;2.20;;;2.00;;
35494;SDS011;21608;49.300;6.846;2022-08-05T16:52:29;4.75;;;1.80;;
35494;SDS011;21608;49.300;6.846;2022-08-05T16:55:34;2.78;;;2.03;;
35494;SDS011;21608;49.300;6.846;2022-08-05T16:58:47;1.75;;;1.65;;
35494;SDS011;21608;49.300;6.846;2022-08-05T17:01:49;3.72;;;2.33;;
35494;SDS011;21608;49.300;6.846;2022-08-05T17:04:54;2.78;;;2.33;;
35494;SDS011;21608;49.300;6.846;2022-08-05T17:07:56;2.40;;;1.85;;
35494;SDS011;21608;49.300;6.846;2022-08-05T17:10:58;1.42;;;1.40;;
35494;SDS011;21608;49.300;6.846;2022-08-05T17:14:00;1.95;;;1.85;;
35494;SDS011;21608;49.300;6.846;2022-08-05T17:17:06;2.72;;;1.65;;
35494;SDS011;21608;49.300;6.846;2022-08-05T17:20:15;1.85;;;1.75;;
35494;SDS011;21608;49.300;6.846;2022-08-05T17:23:17;1.50;;;1.38;;
35494;SDS011;21608;49.300;6.846;2022-08-05T17:26:39;2.40;;;1.77;;
35494;SDS011;21608;49.300;6.846;2022-08-05T17:29:41;5.05;;;1.77;;
35494;SDS011;21608;49.300;6.846;2022-08-05T17:32:43;3.58;;;2.08;;
35494;SDS011;21608;49.300;6.846;2022-08-05T17:35:45;1.83;;;1.58;;
35494;SDS011;21608;49.300;6.846;2022-08-05T17:39:07;3.38;;;2.00;;
35494;SDS011;21608;49.300;6.846;2022-08-05T17:42:24;8.07;;;1.93;;
35494;SDS011;21608;49.300;6.846;2022-08-05T17:45:32;21.38;;;3.30;;
35494;SDS011;21608;49.300;6.846;2022-08-05T17:48:39;14.65;;;3.50;;
35494;SDS011;21608;49.300;6.846;2022-08-05T17:51:45;9.70;;;3.03;;
35494;SDS011;21608;49.300;6.846;2022-08-05T17:54:50;14.82;;;3.15;;
35494;SDS011;21608;49.300;6.846;2022-08-05T17:57:53;15.27;;;2.83;;
35494;SDS011;21608;49.300;6.846;2022-08-05T18:00:55;14.10;;;2.85;;
35494;SDS011;21608;49.300;6.846;2022-08-05T18:03:58;12.25;;;3.03;;
35494;SDS011;21608;49.300;6.846;2022-08-05T18:07:06;10.77;;;3.35;;
35494;SDS011;21608;49.300;6.846;2022-08-05T18:10:12;8.67;;;2.63;;
35494;SDS011;21608;49.300;6.846;2022-08-05T18:13:21;10.73;;;2.65;;
35494;SDS011;21608;49.300;6.846;2022-08-05T18:16:26;2.72;;;2.10;;
35494;SDS011;21608;49.300;6.846;2022-08-05T18:19:27;7.40;;;3.08;;
35494;SDS011;21608;49.300;6.846;2022-08-05T18:22:30;11.00;;;2.60;;
35494;SDS011;21608;49.300;6.846;2022-08-05T18:25:51;5.32;;;2.70;;
35494;SDS011;21608;49.300;6.846;2022-08-05T18:28:59;9.88;;;2.65;;
35494;SDS011;21608;49.300;6.846;2022-08-05T18:32:01;3.15;;;2.00;;
35494;SDS011;21608;49.300;6.846;2022-08-05T18:35:03;4.30;;;2.55;;
35494;SDS011;21608;49.300;6.846;2022-08-05T18:38:05;3.08;;;2.50;;
35494;SDS011;21608;49.300;6.846;2022-08-05T18:41:08;3.40;;;2.30;;
35494;SDS011;21608;49.300;6.846;2022-08-05T18:44:30;2.85;;;2.35;;
35494;SDS011;21608;49.300;6.846;2022-08-05T18:47:52;12.45;;;2.63;;
35494;SDS011;21608;49.300;6.846;2022-08-05T18:50:57;5.43;;;2.50;;
35494;SDS011;21608;49.300;6.846;2022-08-05T18:54:37;8.13;;;2.53;;
35494;SDS011;21608;49.300;6.846;2022-08-05T18:57:46;4.55;;;2.80;;
35494;SDS011;21608;49.300;6.846;2022-08-05T19:00:54;4.45;;;2.70;;
35494;SDS011;21608;49.300;6.846;2022-08-05T19:03:56;4.30;;;2.42;;
35494;SDS011;21608;49.300;6.846;2022-08-05T19:06:58;5.28;;;2.42;;
35494;SDS011;21608;49.300;6.846;2022-08-05T19:10:00;4.65;;;2.42;;
35494;SDS011;21608;49.300;6.846;2022-08-05T19:13:11;2.45;;;2.30;;
35494;SDS011;21608;49.300;6.846;2022-08-05T19:16:16;7.88;;;2.30;;
35494;SDS011;21608;49.300;6.846;2022-08-05T19:19:30;5.70;;;2.28;;
35494;SDS011;21608;49.300;6.846;2022-08-05T19:22:32;3.03;;;2.30;;
35494;SDS011;21608;49.300;6.846;2022-08-05T19:25:40;3.35;;;2.30;;
35494;SDS011;21608;49.300;6.846;2022-08-05T19:28:43;3.17;;;1.75;;
35494;SDS011;21608;49.300;6.846;2022-08-05T19:31:46;2.88;;;2.55;;
35494;SDS011;21608;49.300;6.846;2022-08-05T19:34:51;2.72;;;2.38;;
35494;SDS011;21608;49.300;6.846;2022-08-05T19:37:55;4.60;;;2.55;;
35494;SDS011;21608;49.300;6.846;2022-08-05T19:41:08;2.47;;;2.28;;
35494;SDS011;21608;49.300;6.846;2022-08-05T19:44:10;2.78;;;2.45;;